Time,TemperatureF,DewpointF,PressureIn,WindDirection,WindDirectionDegrees,WindSpeedMPH,WindSpeedGustMPH,Humidity,HourlyPrecipIn,Conditions,Clouds,dailyrainin,SoftwareType,DateUTC
2013-02-22 00:05:00,66.7,66.1,30.05,SSW,202,2.2,-999.0,98,-99.99,,,0.00,Acu-Link.com,2013-02-22 10:05:00,
2013-02-22 06:45:00,66.2,65.9,29.99,SSW,202,0.0,-999.0,99,-99.99,,,0.03,Acu-Link.com,2013-02-22 16:45:00,
2013-02-22 07:16:00,66.0,65.7,29.99,ENE,67,0.0,-999.0,99,-99.99,,,0.03,Acu-Link.com,2013-02-22 17:16:00,
2013-02-22 07:31:00,66.4,66.1,30.02,NE,45,0.0,-999.0,99,-99.99,,,0.03,Acu-Link.com,2013-02-22 17:31:00,
2013-02-22 08:24:00,66.6,66.3,30.02,SSE,157,2.2,-999.0,99,-99.99,,,0.03,Acu-Link.com,2013-02-22 18:24:00,
2013-02-22 08:40:00,67.5,66.9,30.05,SSW,202,0.0,-999.0,98,-99.99,,,0.04,Acu-Link.com,2013-02-22 18:40:00,
2013-02-22 08:55:00,67.6,67.0,30.05,SE,135,2.7,-999.0,98,-99.99,,,0.12,Acu-Link.com,2013-02-22 18:55:00,
2013-02-22 09:10:00,67.8,66.9,30.06,North,0,1.7,-999.0,97,-99.99,,,0.12,Acu-Link.com,2013-02-22 19:10:00,
2013-02-22 09:26:00,68.0,66.8,30.05,NNE,22,4.7,-999.0,96,-99.99,,,0.14,Acu-Link.com,2013-02-22 19:26:00,
2013-02-22 09:45:00,68.4,67.8,30.05,South,180,2.7,-999.0,98,-99.99,,,0.20,Acu-Link.com,2013-02-22 19:45:00,
2013-02-22 10:04:00,68.2,67.6,30.05,ESE,112,3.2,-999.0,98,-99.99,,,0.35,Acu-Link.com,2013-02-22 20:04:00,
2013-02-22 10:27:00,68.4,67.5,30.05,WSW,247,0.0,-999.0,97,-99.99,,,0.39,Acu-Link.com,2013-02-22 20:27:00,
2013-02-22 10:48:00,69.3,68.1,30.04,SSE,157,6.3,-999.0,96,-99.99,,,0.48,Acu-Link.com,2013-02-22 20:48:00,
2013-02-22 11:04:00,69.1,68.2,30.04,WNW,292,4.2,-999.0,97,-99.99,,,0.67,Acu-Link.com,2013-02-22 21:04:00,
2013-02-22 11:19:00,68.4,66.9,30.04,SSW,202,0.0,-999.0,95,-99.99,,,0.70,Acu-Link.com,2013-02-22 21:19:00,
2013-02-22 11:34:00,68.4,67.2,30.03,South,180,0.0,-999.0,96,-99.99,,,0.70,Acu-Link.com,2013-02-22 21:34:00,
2013-02-22 11:50:00,69.4,67.9,30.03,SSE,157,1.7,-999.0,95,-99.99,,,0.70,Acu-Link.com,2013-02-22 21:50:00,
2013-02-22 12:05:00,70.3,68.2,30.02,NNW,337,3.7,-999.0,93,-99.99,,,0.72,Acu-Link.com,2013-02-22 22:05:00,
2013-02-22 12:20:00,71.8,69.0,30.01,ENE,67,0.0,-999.0,91,-99.99,,,0.72,Acu-Link.com,2013-02-22 22:20:00,
2013-02-22 12:35:00,71.8,68.7,29.99,NNW,337,4.2,-999.0,90,-99.99,,,0.72,Acu-Link.com,2013-02-22 22:35:00,
2013-02-22 12:51:00,72.9,69.1,29.99,SSW,202,1.7,-999.0,88,-99.99,,,0.74,Acu-Link.com,2013-02-22 22:51:00,
2013-02-22 13:06:00,73.2,68.8,29.98,SW,225,1.1,-999.0,86,-99.99,,,0.74,Acu-Link.com,2013-02-22 23:06:00,
2013-02-22 13:21:00,74.3,68.4,29.97,WSW,247,1.1,-999.0,82,-99.99,,,0.75,Acu-Link.com,2013-02-22 23:21:00,
2013-02-22 13:36:00,72.9,66.4,29.97,West,270,3.2,-999.0,80,-99.99,,,0.75,Acu-Link.com,2013-02-22 23:36:00,
2013-02-22 13:51:00,73.4,67.6,29.97,SSW,202,2.7,-999.0,82,-99.99,,,0.75,Acu-Link.com,2013-02-22 23:51:00,
2013-02-22 14:07:00,74.1,67.9,29.96,SW,225,1.1,-999.0,81,-99.99,,,0.75,Acu-Link.com,2013-02-23 00:07:00,
2013-02-22 14:22:00,72.5,70.0,29.96,ESE,112,5.8,-999.0,92,-99.99,,,0.78,Acu-Link.com,2013-02-23 00:22:00,
2013-02-22 14:37:00,73.6,69.1,29.95,WNW,292,0.0,-999.0,86,-99.99,,,0.82,Acu-Link.com,2013-02-23 00:37:00,
2013-02-22 14:53:00,72.3,68.9,29.95,West,270,2.7,-999.0,89,-99.99,,,0.83,Acu-Link.com,2013-02-23 00:53:00,
2013-02-22 15:08:00,72.5,70.0,29.95,SSW,202,1.1,-999.0,92,-99.99,,,0.86,Acu-Link.com,2013-02-23 01:08:00,
2013-02-22 15:23:00,71.4,68.6,29.94,ESE,112,1.1,-999.0,91,-99.99,,,0.88,Acu-Link.com,2013-02-23 01:23:00,
2013-02-22 15:39:00,73.2,69.4,29.94,NNE,22,2.7,-999.0,88,-99.99,,,0.88,Acu-Link.com,2013-02-23 01:39:00,
2013-02-22 15:54:00,72.3,68.2,29.94,ESE,112,3.7,-999.0,87,-99.99,,,0.88,Acu-Link.com,2013-02-23 01:54:00,
2013-02-22 16:09:00,72.1,67.0,29.93,WSW,247,3.2,-999.0,84,-99.99,,,0.88,Acu-Link.com,2013-02-23 02:09:00,
2013-02-22 16:24:00,72.5,68.7,29.95,South,180,0.0,-999.0,88,-99.99,,,0.88,Acu-Link.com,2013-02-23 02:24:00,
2013-02-22 16:39:00,72.1,67.7,29.95,South,180,2.7,-999.0,86,-99.99,,,0.90,Acu-Link.com,2013-02-23 02:39:00,
2013-02-22 16:54:00,72.0,68.2,29.94,SW,225,2.7,-999.0,88,-99.99,,,0.90,Acu-Link.com,2013-02-23 02:54:00,
2013-02-22 17:10:00,70.2,67.4,29.95,SSE,157,2.7,-999.0,91,-99.99,,,1.00,Acu-Link.com,2013-02-23 03:10:00,
2013-02-22 17:25:00,69.6,65.9,29.94,SSW,202,3.7,-999.0,88,-99.99,,,1.02,Acu-Link.com,2013-02-23 03:25:00,
2013-02-22 17:40:00,69.3,66.6,29.94,ENE,67,0.0,-999.0,91,-99.99,,,1.02,Acu-Link.com,2013-02-23 03:40:00,
2013-02-22 17:56:00,68.9,65.5,29.95,ESE,112,3.7,-999.0,89,-99.99,,,1.02,Acu-Link.com,2013-02-23 03:56:00,
2013-02-22 18:11:00,68.7,66.0,29.97,NE,45,1.7,-999.0,91,-99.99,,,1.02,Acu-Link.com,2013-02-23 04:11:00,
2013-02-22 18:26:00,68.5,65.8,29.98,South,180,0.0,-999.0,91,-99.99,,,1.02,Acu-Link.com,2013-02-23 04:26:00,
2013-02-22 18:42:00,68.4,65.7,29.97,West,270,2.7,-999.0,91,-99.99,,,1.02,Acu-Link.com,2013-02-23 04:42:00,
2013-02-22 18:57:00,67.8,66.0,29.98,North,0,2.2,-999.0,94,-99.99,,,1.06,Acu-Link.com,2013-02-23 04:57:00,
2013-02-22 19:12:00,67.1,65.6,30.00,SSW,202,1.7,-999.0,95,-99.99,,,1.07,Acu-Link.com,2013-02-23 05:12:00,
2013-02-22 19:27:00,66.9,66.0,29.98,WSW,247,2.7,-999.0,97,-99.99,,,1.25,Acu-Link.com,2013-02-23 05:27:00,
2013-02-22 19:42:00,66.7,66.1,29.99,SE,135,0.0,-999.0,98,-99.99,,,1.28,Acu-Link.com,2013-02-23 05:42:00,
2013-02-22 19:58:00,66.6,65.7,29.99,West,270,1.7,-999.0,97,-99.99,,,1.28,Acu-Link.com,2013-02-23 05:58:00,
2013-02-22 20:13:00,66.6,65.1,30.00,NNW,337,3.7,-999.0,95,-99.99,,,1.28,Acu-Link.com,2013-02-23 06:13:00,
2013-02-22 20:28:00,66.7,65.5,30.00,WSW,247,1.7,-999.0,96,-99.99,,,1.28,Acu-Link.com,2013-02-23 06:28:00,
2013-02-22 20:44:00,66.7,65.5,30.01,NE,45,0.0,-999.0,96,-99.99,,,1.28,Acu-Link.com,2013-02-23 06:44:00,
2013-02-22 20:59:00,66.4,65.2,30.03,ESE,112,1.1,-999.0,96,-99.99,,,1.28,Acu-Link.com,2013-02-23 06:59:00,
2013-02-22 21:14:00,66.4,64.9,30.00,South,180,2.2,-999.0,95,-99.99,,,1.28,Acu-Link.com,2013-02-23 07:14:00,
2013-02-22 21:29:00,66.7,64.9,30.02,East,90,2.7,-999.0,94,-99.99,,,1.29,Acu-Link.com,2013-02-23 07:29:00,
2013-02-22 21:44:00,66.7,64.0,30.02,SSE,157,4.2,-999.0,91,-99.99,,,1.29,Acu-Link.com,2013-02-23 07:44:00,
2013-02-22 22:00:00,66.9,64.8,30.03,NE,45,0.0,-999.0,93,-99.99,,,1.29,Acu-Link.com,2013-02-23 08:00:00,
2013-02-22 22:15:00,66.9,64.2,30.03,South,180,2.2,-999.0,91,-99.99,,,1.29,Acu-Link.com,2013-02-23 08:15:00,
2013-02-22 22:30:00,66.9,64.2,30.05,East,90,2.7,-999.0,91,-99.99,,,1.29,Acu-Link.com,2013-02-23 08:30:00,
2013-02-22 22:45:00,66.9,65.1,30.03,ESE,112,1.7,-999.0,94,-99.99,,,1.29,Acu-Link.com,2013-02-23 08:45:00,
2013-02-22 23:00:00,66.4,64.6,30.04,SSW,202,3.2,-999.0,94,-99.99,,,1.29,Acu-Link.com,2013-02-23 09:00:00,
2013-02-22 23:20:00,66.4,64.3,30.03,East,90,2.2,-999.0,93,-99.99,,,1.29,Acu-Link.com,2013-02-23 09:20:00,
2013-02-22 23:35:00,66.6,64.8,30.04,South,180,2.2,-999.0,94,-99.99,,,1.29,Acu-Link.com,2013-02-23 09:35:00,
2013-02-22 23:50:00,66.6,64.2,30.03,WSW,247,1.1,-999.0,92,-99.99,,,1.29,Acu-Link.com,2013-02-23 09:50:00,